createdAt,value
2023-03-20T00:05:23.659Z,10.05
2023-03-20T00:11:18.204Z,9.90
2023-03-20T00:17:11.370Z,9.87
2023-03-20T00:22:58.198Z,9.90
2023-03-20T00:28:50.549Z,9.86
2023-03-20T00:34:37.919Z,9.89
2023-03-20T00:40:31.472Z,9.92
2023-03-20T00:46:22.168Z,9.81
2023-03-20T00:52:12.737Z,9.77
2023-03-20T00:58:02.425Z,9.95
2023-03-20T01:03:50.699Z,9.95
2023-03-20T01:09:37.679Z,10.01
2023-03-20T01:15:31.042Z,10.09
2023-03-20T01:21:18.614Z,10.03
2023-03-20T01:27:11.684Z,10.11
2023-03-20T01:33:00.039Z,10.04
2023-03-20T01:38:55.247Z,10.13
2023-03-20T01:44:43.272Z,10.27
2023-03-20T01:50:33.579Z,10.29
2023-03-20T01:56:28.897Z,10.18
2023-03-20T02:02:21.263Z,10.14
2023-03-20T02:08:17.313Z,10.14
2023-03-20T02:14:06.761Z,9.87
2023-03-20T02:20:11.105Z,9.79
2023-03-20T02:26:03.887Z,9.88
2023-03-20T02:32:15.451Z,9.88
2023-03-20T02:38:24.854Z,9.66
2023-03-20T02:44:37.068Z,9.58
2023-03-20T02:50:36.793Z,9.59
2023-03-20T02:56:36.974Z,9.61
2023-03-20T03:02:43.409Z,9.59
2023-03-20T03:08:35.299Z,9.57
2023-03-20T03:14:35.976Z,9.56
2023-03-20T03:20:28.436Z,9.65
2023-03-20T03:26:27.802Z,9.79
2023-03-20T03:32:30.787Z,9.73
2023-03-20T03:38:30.357Z,9.67
2023-03-20T03:44:26.960Z,9.80
2023-03-20T03:50:37.212Z,9.67
2023-03-20T03:56:27.836Z,9.81
2023-03-20T04:02:16.746Z,9.89
2023-03-20T04:08:05.783Z,9.81
2023-03-20T04:13:53.584Z,10.02
2023-03-20T04:19:40.379Z,9.89
2023-03-20T04:25:27.586Z,9.87
2023-03-20T04:31:15.971Z,10.06
2023-03-20T04:37:12.309Z,10.00
2023-03-20T04:43:11.474Z,10.13
2023-03-20T04:48:58.720Z,10.10
2023-03-20T04:54:49.580Z,10.16
2023-03-20T05:00:37.328Z,10.22
2023-03-20T05:06:24.021Z,10.15
2023-03-20T05:12:13.238Z,10.20
2023-03-20T05:18:16.724Z,9.98
2023-03-20T05:24:33.331Z,10.08
2023-03-20T05:30:32.762Z,9.98
2023-03-20T05:36:19.530Z,10.04
2023-03-20T05:42:29.241Z,10.10
2023-03-20T05:48:37.088Z,10.13
2023-03-20T05:54:53.506Z,10.09
2023-03-20T06:01:08.473Z,10.09
2023-03-20T06:07:20.800Z,10.08
2023-03-20T06:13:16.973Z,10.07
2023-03-20T06:19:04.032Z,10.18
2023-03-20T06:24:51.040Z,10.12
2023-03-20T06:30:41.326Z,10.30
2023-03-20T06:36:33.739Z,10.21
2023-03-20T06:42:31.233Z,10.37
2023-03-20T06:48:22.023Z,10.37
2023-03-20T06:54:09.367Z,10.45
2023-03-20T06:59:56.226Z,10.48
2023-03-20T07:05:43.481Z,10.66
2023-03-20T07:11:31.574Z,10.81
2023-03-20T07:17:18.338Z,11.06
2023-03-20T07:23:05.302Z,11.16
2023-03-20T07:28:54.460Z,11.24
2023-03-20T07:34:48.859Z,11.26
2023-03-20T07:40:37.383Z,11.30
2023-03-20T07:46:29.644Z,11.19
2023-03-20T07:52:17.218Z,11.17
2023-03-20T07:58:04.432Z,11.15
2023-03-20T08:03:51.619Z,11.18
2023-03-20T08:09:38.849Z,11.48
2023-03-20T08:15:27.055Z,11.39
2023-03-20T08:21:14.114Z,11.32
2023-03-20T08:27:01.353Z,11.37
2023-03-20T08:32:48.559Z,11.55
2023-03-20T08:38:36.050Z,11.60
2023-03-20T08:44:22.993Z,11.59
2023-03-20T08:50:12.315Z,11.52
2023-03-20T08:55:59.288Z,11.74
2023-03-20T09:01:52.004Z,11.81
2023-03-20T09:07:53.909Z,11.77
2023-03-20T09:13:40.765Z,11.92
2023-03-20T09:19:31.382Z,12.22
2023-03-20T09:25:18.864Z,12.26
2023-03-20T09:31:06.551Z,12.32
2023-03-20T09:36:58.851Z,12.56
2023-03-20T09:42:58.966Z,12.70
2023-03-20T09:48:57.151Z,12.71
2023-03-20T09:54:54.389Z,12.97
2023-03-20T10:00:47.627Z,13.09
2023-03-20T10:06:41.113Z,13.31
2023-03-20T10:12:57.178Z,13.53
2023-03-20T10:18:52.670Z,13.37
2023-03-20T10:24:44.397Z,13.42
2023-03-20T10:30:39.189Z,13.72
2023-03-20T10:36:36.185Z,13.75
2023-03-20T10:42:30.208Z,13.45
2023-03-20T10:48:35.646Z,13.29
2023-03-20T10:54:50.455Z,13.44
2023-03-20T11:07:17.404Z,13.11
2023-03-20T11:13:22.869Z,13.25
2023-03-20T11:19:14.789Z,13.46
2023-03-20T11:25:22.810Z,13.52
2023-03-20T11:31:28.204Z,13.61
2023-03-20T11:37:26.065Z,13.68
2023-03-20T11:43:15.601Z,13.82
2023-03-20T11:49:21.766Z,13.78
2023-03-20T11:55:29.897Z,13.80
2023-03-20T12:01:17.255Z,13.64
2023-03-20T12:07:16.619Z,13.86
2023-03-20T12:13:15.973Z,13.66
2023-03-20T12:19:35.810Z,13.80
2023-03-20T12:25:30.168Z,13.54
2023-03-20T12:31:21.354Z,13.50
2023-03-20T12:37:13.359Z,13.40
2023-03-20T12:43:25.349Z,13.38
2023-03-20T12:49:43.769Z,13.50
2023-03-20T12:55:48.785Z,13.58
2023-03-20T13:01:55.835Z,13.33
2023-03-20T13:08:03.552Z,13.39
2023-03-20T13:14:06.217Z,13.47
2023-03-20T13:20:22.494Z,13.50
2023-03-20T13:26:21.327Z,13.56
2023-03-20T13:32:30.042Z,13.45
2023-03-20T13:38:36.685Z,13.39
2023-03-20T13:44:27.959Z,13.45
2023-03-20T13:50:38.886Z,13.28
2023-03-20T13:56:32.785Z,13.27
2023-03-20T14:02:51.356Z,13.46
2023-03-20T14:08:38.586Z,13.37
2023-03-20T14:14:41.293Z,13.51
2023-03-20T14:20:34.473Z,13.62
2023-03-20T14:26:28.870Z,13.35
2023-03-20T14:32:16.725Z,13.36
2023-03-20T14:38:18.904Z,13.12
2023-03-20T14:44:34.854Z,13.04
2023-03-20T14:50:49.705Z,12.98
2023-03-20T14:56:39.085Z,12.94
2023-03-20T15:02:30.039Z,12.93
2023-03-20T15:08:24.338Z,13.08
2023-03-20T15:14:18.835Z,13.06
2023-03-20T15:20:19.305Z,13.10
2023-03-20T15:26:07.867Z,12.95
2023-03-20T15:32:13.004Z,12.96
2023-03-20T15:38:07.732Z,13.25
2023-03-20T15:44:03.779Z,12.99
2023-03-20T15:49:59.001Z,12.89
2023-03-20T15:56:17.639Z,12.90
2023-03-20T16:09:15.606Z,12.78
2023-03-20T16:15:28.476Z,12.79
2023-03-20T16:21:22.750Z,12.94
2023-03-20T16:27:15.353Z,12.92
2023-03-20T16:33:22.667Z,12.78
2023-03-20T16:39:35.591Z,12.74
2023-03-20T16:46:06.206Z,12.87
2023-03-20T16:51:59.571Z,12.74
2023-03-20T16:57:50.970Z,12.57
2023-03-20T17:03:44.145Z,12.42
2023-03-20T17:09:31.793Z,12.41
2023-03-20T17:15:28.541Z,12.42
2023-03-20T17:21:16.156Z,12.46
2023-03-20T17:27:03.782Z,12.35
2023-03-20T17:32:51.724Z,12.40
2023-03-20T17:38:39.054Z,12.28
2023-03-20T17:44:26.183Z,12.25
2023-03-20T17:50:25.586Z,12.32
2023-03-20T17:56:15.430Z,12.31
2023-03-20T18:02:02.463Z,12.10
2023-03-20T18:07:51.750Z,12.06
2023-03-20T18:13:44.935Z,12.24
2023-03-20T18:19:34.631Z,12.05
2023-03-20T18:25:22.421Z,11.99
2023-03-20T18:31:12.950Z,11.93
2023-03-20T18:36:59.956Z,11.80
2023-03-20T18:42:47.252Z,11.72
2023-03-20T18:48:34.195Z,11.66
2023-03-20T18:54:21.069Z,11.53
2023-03-20T19:00:27.439Z,11.52
2023-03-20T19:06:19.494Z,11.67
2023-03-20T19:12:06.352Z,11.74
2023-03-20T19:17:54.525Z,11.65
2023-03-20T19:23:41.571Z,11.65
2023-03-20T19:29:28.692Z,11.65
2023-03-20T19:41:24.606Z,11.63
2023-03-20T19:47:12.082Z,11.70
2023-03-20T19:53:01.948Z,11.66
2023-03-20T19:58:49.739Z,11.74
2023-03-20T20:04:36.788Z,11.57
2023-03-20T20:10:37.214Z,11.60
2023-03-20T20:16:24.608Z,11.60
2023-03-20T20:22:24.771Z,11.67
2023-03-20T20:28:14.577Z,11.58
2023-03-20T20:35:05.736Z,11.57
2023-03-20T20:40:15.541Z,11.60
2023-03-20T20:46:02.451Z,11.58
2023-03-20T20:51:49.616Z,11.54
2023-03-20T20:57:36.481Z,11.58
2023-03-20T21:03:23.331Z,11.73
2023-03-20T21:09:10.909Z,11.59
2023-03-20T21:15:07.119Z,11.59
2023-03-20T21:21:04.277Z,11.48
2023-03-20T21:26:51.607Z,11.57
2023-03-20T21:34:10.612Z,11.43
2023-03-20T21:40:29.893Z,11.46
2023-03-20T22:27:18.847Z,11.13
2023-03-20T22:33:29.827Z,11.41
2023-03-20T22:39:24.736Z,11.47
2023-03-20T22:45:04.706Z,11.34
2023-03-20T22:50:52.009Z,11.42
2023-03-20T22:56:38.696Z,11.40
2023-03-20T23:02:25.491Z,11.38
2023-03-20T23:08:12.400Z,11.41
2023-03-20T23:14:00.824Z,11.29
2023-03-20T23:19:52.155Z,11.33
2023-03-20T23:25:44.371Z,11.28
2023-03-20T23:31:46.617Z,11.26
2023-03-20T23:37:34.806Z,11.39
2023-03-20T23:43:21.679Z,11.36
2023-03-20T23:49:08.383Z,11.37
2023-03-20T23:54:55.330Z,11.37
